KORS Airport Information

Runway Information
Runway 16 Length 2900 ft width 60 ft
Elevation 31 ft Threshold 0 ft Heading 0
Runway 34 Length 2900 ft Width 60 ft
Elevation 31 ft Threshold 0 ft Heading 0
Airport Frequencies
Airport Navaids
Airport Weather Information & NOTAM
ADDS - METARS form results

(0623 UTC 15 December 2018)
Data provider http://aviationweather.gov/metar/data/
 
METAR text: KORS 150615Z AUTO 18009KT 10SM FEW038 FEW047 07/01 A2978 RMK AO2
Conditions at: KORS (EASTSOUND/ORCAS , WA, US) observed 0615 UTC 15 December 2018
Temperature: 7.0°C (45°F)
Dewpoint: 1.0°C (34°F) [RH = 66%]
Pressure (altimeter): 29.78 inches Hg (1008.5 mb)
Winds: from the S (180 degrees) at 10 MPH (9 knots; 4.6 m/s)
Visibility: 10 or more miles (16+ km)
Ceiling: at least 12,000 feet AGL
Clouds: few clouds at 3800 feet AGL
few clouds at 4700 feet AGL
Weather: automated observation with no human augmentation;
there may or may not be significant weather present at this time

METAR text: KORS 150555Z AUTO 21011G20KT 10SM FEW044 07/01 A2975 RMK AO2
Conditions at: KORS (EASTSOUND/ORCAS , WA, US) observed 0555 UTC 15 December 2018
Temperature: 7.0°C (45°F)
Dewpoint: 1.0°C (34°F) [RH = 66%]
Pressure (altimeter): 29.75 inches Hg (1007.5 mb)
Winds: from the SSW (210 degrees) at 13 MPH (11 knots; 5.7 m/s)
gusting to 23 MPH (20 knots; 10.3 m/s)
Visibility: 10 or more miles (16+ km)
Ceiling: at least 12,000 feet AGL
Clouds: few clouds at 4400 feet AGL
Weather: automated observation with no human augmentation;
there may or may not be significant weather present at this time

METAR text: KORS 150535Z AUTO 20010G20KT 10SM CLR 07/01 A2972 RMK AO2
Conditions at: KORS (EASTSOUND/ORCAS , WA, US) observed 0535 UTC 15 December 2018
Temperature: 7.0°C (45°F)
Dewpoint: 1.0°C (34°F) [RH = 66%]
Pressure (altimeter): 29.72 inches Hg (1006.5 mb)
Winds: from the SSW (200 degrees) at 12 MPH (10 knots; 5.1 m/s)
gusting to 23 MPH (20 knots; 10.3 m/s)
Visibility: 10 or more miles (16+ km)
Ceiling: at least 12,000 feet AGL
Clouds: sky clear below 12,000 feet AGL
Weather: automated observation with no human augmentation;
there may or may not be significant weather present at this time